sensor_id;sensor_type;location;lat;lon;timestamp;pressure;altitude;pressure_sealevel;temperature;humidity
64192;BME280;50497;50.720;-2.084;2022-12-22T00:01:33;98666.78;;;7.22;100.00
64192;BME280;50497;50.720;-2.084;2022-12-22T00:04:18;98665.16;;;7.20;100.00
64192;BME280;50497;50.720;-2.084;2022-12-22T00:07:02;98676.69;;;7.20;100.00
64192;BME280;50497;50.720;-2.084;2022-12-22T00:09:45;98684.19;;;7.14;100.00
64192;BME280;50497;50.720;-2.084;2022-12-22T00:12:31;98686.19;;;7.10;100.00
64192;BME280;50497;50.720;-2.084;2022-12-22T00:15:16;98689.28;;;7.04;100.00
64192;BME280;50497;50.720;-2.084;2022-12-22T00:18:00;98691.63;;;7.09;100.00
64192;BME280;50497;50.720;-2.084;2022-12-22T00:20:44;98714.66;;;7.22;100.00
64192;BME280;50497;50.720;-2.084;2022-12-22T00:23:29;98719.97;;;7.22;100.00
64192;BME280;50497;50.720;-2.084;2022-12-22T00:26:13;98713.56;;;7.12;100.00
64192;BME280;50497;50.720;-2.084;2022-12-22T00:28:57;98710.59;;;7.17;100.00
64192;BME280;50497;50.720;-2.084;2022-12-22T00:31:42;98716.34;;;7.24;100.00
64192;BME280;50497;50.720;-2.084;2022-12-22T00:34:27;98709.09;;;7.13;100.00
64192;BME280;50497;50.720;-2.084;2022-12-22T00:37:12;98718.81;;;7.27;100.00
64192;BME280;50497;50.720;-2.084;2022-12-22T00:39:57;98713.16;;;7.18;100.00
64192;BME280;50497;50.720;-2.084;2022-12-22T00:42:41;98697.91;;;7.08;100.00
64192;BME280;50497;50.720;-2.084;2022-12-22T00:45:24;98726.25;;;7.21;100.00
64192;BME280;50497;50.720;-2.084;2022-12-22T00:48:24;98700.28;;;7.12;100.00
64192;BME280;50497;50.720;-2.084;2022-12-22T00:51:09;98694.19;;;7.10;100.00
64192;BME280;50497;50.720;-2.084;2022-12-22T00:53:54;98714.66;;;7.22;100.00
64192;BME280;50497;50.720;-2.084;2022-12-22T00:56:38;98710.69;;;7.15;100.00
64192;BME280;50497;50.720;-2.084;2022-12-22T00:59:22;98713.34;;;7.15;100.00
64192;BME280;50497;50.720;-2.084;2022-12-22T01:02:06;98697.03;;;7.07;100.00
64192;BME280;50497;50.720;-2.084;2022-12-22T01:04:50;98701.03;;;7.14;100.00
64192;BME280;50497;50.720;-2.084;2022-12-22T01:07:34;98706.78;;;7.21;100.00
64192;BME280;50497;50.720;-2.084;2022-12-22T01:10:19;98723.59;;;7.21;100.00
64192;BME280;50497;50.720;-2.084;2022-12-22T01:13:13;98725.50;;;7.19;100.00
64192;BME280;50497;50.720;-2.084;2022-12-22T01:15:57;98718.66;;;7.15;100.00
64192;BME280;50497;50.720;-2.084;2022-12-22T01:18:41;98715.81;;;7.18;100.00
64192;BME280;50497;50.720;-2.084;2022-12-22T01:21:26;98706.03;;;7.19;100.00
64192;BME280;50497;50.720;-2.084;2022-12-22T01:24:15;98693.44;;;7.08;100.00
64192;BME280;50497;50.720;-2.084;2022-12-22T01:27:00;98712.41;;;7.16;100.00
64192;BME280;50497;50.720;-2.084;2022-12-22T01:29:44;98714.50;;;7.11;100.00
64192;BME280;50497;50.720;-2.084;2022-12-22T01:32:29;98710.13;;;7.10;100.00
64192;BME280;50497;50.720;-2.084;2022-12-22T01:35:22;98704.63;;;7.13;100.00
64192;BME280;50497;50.720;-2.084;2022-12-22T01:38:07;98697.63;;;7.12;100.00
64192;BME280;50497;50.720;-2.084;2022-12-22T01:40:52;98684.25;;;6.99;100.00
64192;BME280;50497;50.720;-2.084;2022-12-22T01:43:36;98706.94;;;7.05;100.00
64192;BME280;50497;50.720;-2.084;2022-12-22T01:49:08;98695.19;;;6.95;100.00
64192;BME280;50497;50.720;-2.084;2022-12-22T01:51:54;98683.16;;;6.89;100.00
64192;BME280;50497;50.720;-2.084;2022-12-22T01:54:38;98689.34;;;6.90;100.00
64192;BME280;50497;50.720;-2.084;2022-12-22T01:57:23;98695.31;;;6.79;100.00
64192;BME280;50497;50.720;-2.084;2022-12-22T02:00:07;98700.97;;;6.74;100.00
64192;BME280;50497;50.720;-2.084;2022-12-22T02:02:51;98692.47;;;6.55;100.00
64192;BME280;50497;50.720;-2.084;2022-12-22T02:05:41;98689.44;;;6.46;100.00
64192;BME280;50497;50.720;-2.084;2022-12-22T02:08:32;98709.84;;;6.46;100.00
64192;BME280;50497;50.720;-2.084;2022-12-22T02:11:38;98686.97;;;6.29;100.00
64192;BME280;50497;50.720;-2.084;2022-12-22T02:14:37;98684.72;;;6.08;100.00
64192;BME280;50497;50.720;-2.084;2022-12-22T02:17:36;98704.94;;;6.11;100.00
64192;BME280;50497;50.720;-2.084;2022-12-22T02:20:34;98690.94;;;5.93;100.00
64192;BME280;50497;50.720;-2.084;2022-12-22T02:26:30;98708.56;;;5.80;100.00
64192;BME280;50497;50.720;-2.084;2022-12-22T02:29:28;98688.44;;;5.61;100.00
64192;BME280;50497;50.720;-2.084;2022-12-22T02:32:14;98706.63;;;5.67;100.00
64192;BME280;50497;50.720;-2.084;2022-12-22T02:34:58;98712.53;;;5.42;100.00
64192;BME280;50497;50.720;-2.084;2022-12-22T02:37:55;98720.66;;;5.39;100.00
64192;BME280;50497;50.720;-2.084;2022-12-22T02:47:31;98746.19;;;5.42;100.00
64192;BME280;50497;50.720;-2.084;2022-12-22T02:50:04;98735.34;;;5.30;100.00
64192;BME280;50497;50.720;-2.084;2022-12-22T02:52:52;98740.81;;;5.27;100.00
64192;BME280;50497;50.720;-2.084;2022-12-22T02:55:37;98742.69;;;5.25;100.00
64192;BME280;50497;50.720;-2.084;2022-12-22T02:58:21;98738.59;;;5.19;100.00
64192;BME280;50497;50.720;-2.084;2022-12-22T03:01:05;98759.03;;;5.33;100.00
64192;BME280;50497;50.720;-2.084;2022-12-22T03:03:52;98748.31;;;5.35;100.00
64192;BME280;50497;50.720;-2.084;2022-12-22T03:06:36;98741.06;;;5.23;100.00
64192;BME280;50497;50.720;-2.084;2022-12-22T03:09:20;98770.47;;;5.34;100.00
64192;BME280;50497;50.720;-2.084;2022-12-22T03:12:04;98753.03;;;5.30;100.00
64192;BME280;50497;50.720;-2.084;2022-12-22T03:14:48;98741.38;;;5.48;100.00
64192;BME280;50497;50.720;-2.084;2022-12-22T03:17:32;98755.19;;;5.69;100.00
64192;BME280;50497;50.720;-2.084;2022-12-22T03:20:16;98755.53;;;5.78;100.00
64192;BME280;50497;50.720;-2.084;2022-12-22T03:23:06;98747.69;;;6.06;100.00
64192;BME280;50497;50.720;-2.084;2022-12-22T03:25:50;98746.06;;;6.04;100.00
64192;BME280;50497;50.720;-2.084;2022-12-22T03:28:24;98745.94;;;5.91;100.00
64192;BME280;50497;50.720;-2.084;2022-12-22T03:31:01;98784.03;;;5.90;100.00
64192;BME280;50497;50.720;-2.084;2022-12-22T03:33:28;98772.13;;;5.97;100.00
64192;BME280;50497;50.720;-2.084;2022-12-22T03:35:53;98791.28;;;6.02;100.00
64192;BME280;50497;50.720;-2.084;2022-12-22T03:38:19;98785.75;;;5.91;100.00
64192;BME280;50497;50.720;-2.084;2022-12-22T03:40:45;98815.47;;;5.82;100.00
64192;BME280;50497;50.720;-2.084;2022-12-22T03:43:12;98830.41;;;5.68;100.00
64192;BME280;50497;50.720;-2.084;2022-12-22T03:45:56;98791.22;;;5.58;100.00
64192;BME280;50497;50.720;-2.084;2022-12-22T03:48:41;98820.47;;;5.56;100.00
64192;BME280;50497;50.720;-2.084;2022-12-22T03:51:07;98840.69;;;5.43;100.00
64192;BME280;50497;50.720;-2.084;2022-12-22T03:53:32;98816.00;;;5.26;100.00
64192;BME280;50497;50.720;-2.084;2022-12-22T03:55:58;98817.63;;;5.29;100.00
64192;BME280;50497;50.720;-2.084;2022-12-22T03:58:23;98831.91;;;5.26;100.00
64192;BME280;50497;50.720;-2.084;2022-12-22T04:00:49;98814.78;;;5.16;100.00
64192;BME280;50497;50.720;-2.084;2022-12-22T04:03:14;98812.66;;;5.23;100.00
64192;BME280;50497;50.720;-2.084;2022-12-22T04:05:40;98828.22;;;5.29;100.00
64192;BME280;50497;50.720;-2.084;2022-12-22T04:08:07;98828.13;;;5.30;100.00
64192;BME280;50497;50.720;-2.084;2022-12-22T04:10:32;98831.28;;;5.37;100.00
64192;BME280;50497;50.720;-2.084;2022-12-22T04:13:16;98807.59;;;5.34;100.00
64192;BME280;50497;50.720;-2.084;2022-12-22T04:15:41;98798.16;;;5.60;100.00
64192;BME280;50497;50.720;-2.084;2022-12-22T04:18:07;98797.91;;;5.49;100.00
64192;BME280;50497;50.720;-2.084;2022-12-22T04:20:32;98794.28;;;5.66;100.00
64192;BME280;50497;50.720;-2.084;2022-12-22T04:22:58;98811.81;;;5.68;100.00
64192;BME280;50497;50.720;-2.084;2022-12-22T04:25:24;98808.19;;;5.85;100.00
64192;BME280;50497;50.720;-2.084;2022-12-22T04:27:49;98809.03;;;5.86;100.00
64192;BME280;50497;50.720;-2.084;2022-12-22T04:30:16;98800.84;;;5.74;100.00
64192;BME280;50497;50.720;-2.084;2022-12-22T04:32:41;98904.66;;;5.84;100.00
64192;BME280;50497;50.720;-2.084;2022-12-22T04:35:07;98905.03;;;5.78;100.00
64192;BME280;50497;50.720;-2.084;2022-12-22T04:37:33;98933.34;;;5.93;100.00
64192;BME280;50497;50.720;-2.084;2022-12-22T04:39:58;98922.13;;;5.88;100.00
64192;BME280;50497;50.720;-2.084;2022-12-22T04:42:24;98931.53;;;6.10;100.00
64192;BME280;50497;50.720;-2.084;2022-12-22T04:44:49;98909.38;;;6.11;100.00
64192;BME280;50497;50.720;-2.084;2022-12-22T04:47:15;98902.41;;;6.08;100.00
64192;BME280;50497;50.720;-2.084;2022-12-22T04:49:40;98912.50;;;6.18;100.00
64192;BME280;50497;50.720;-2.084;2022-12-22T04:52:06;98933.88;;;6.31;100.00
64192;BME280;50497;50.720;-2.084;2022-12-22T04:54:31;98946.53;;;6.41;100.00
64192;BME280;50497;50.720;-2.084;2022-12-22T04:56:57;98934.78;;;6.45;100.00
64192;BME280;50497;50.720;-2.084;2022-12-22T04:59:22;98941.63;;;6.50;100.00
64192;BME280;50497;50.720;-2.084;2022-12-22T05:01:48;98929.69;;;6.57;100.00
64192;BME280;50497;50.720;-2.084;2022-12-22T05:04:13;98937.03;;;6.68;100.00
64192;BME280;50497;50.720;-2.084;2022-12-22T05:06:38;98943.66;;;6.75;100.00
64192;BME280;50497;50.720;-2.084;2022-12-22T05:09:04;98928.13;;;6.97;100.00
64192;BME280;50497;50.720;-2.084;2022-12-22T05:11:30;98930.47;;;7.16;100.00
64192;BME280;50497;50.720;-2.084;2022-12-22T05:13:55;98881.72;;;7.30;100.00
64192;BME280;50497;50.720;-2.084;2022-12-22T05:16:21;98858.25;;;7.37;100.00
64192;BME280;50497;50.720;-2.084;2022-12-22T05:18:46;98856.91;;;7.44;100.00
64192;BME280;50497;50.720;-2.084;2022-12-22T05:23:39;98863.38;;;7.40;100.00
64192;BME280;50497;50.720;-2.084;2022-12-22T05:26:04;98854.19;;;7.31;100.00
64192;BME280;50497;50.720;-2.084;2022-12-22T05:28:30;98848.75;;;7.33;100.00
64192;BME280;50497;50.720;-2.084;2022-12-22T05:30:56;98867.09;;;7.37;100.00
64192;BME280;50497;50.720;-2.084;2022-12-22T05:33:26;98853.16;;;7.19;100.00
64192;BME280;50497;50.720;-2.084;2022-12-22T05:35:52;98879.16;;;7.29;100.00
64192;BME280;50497;50.720;-2.084;2022-12-22T05:38:17;98885.25;;;7.31;100.00
64192;BME280;50497;50.720;-2.084;2022-12-22T05:40:47;98886.19;;;7.30;100.00
64192;BME280;50497;50.720;-2.084;2022-12-22T05:43:13;98878.97;;;7.32;100.00
64192;BME280;50497;50.720;-2.084;2022-12-22T05:45:38;98891.59;;;7.43;100.00
64192;BME280;50497;50.720;-2.084;2022-12-22T05:48:04;98892.81;;;7.51;100.00
64192;BME280;50497;50.720;-2.084;2022-12-22T05:50:30;98843.41;;;7.47;100.00
64192;BME280;50497;50.720;-2.084;2022-12-22T05:52:56;98826.81;;;7.84;100.00
64192;BME280;50497;50.720;-2.084;2022-12-22T05:55:22;98811.69;;;7.84;100.00
64192;BME280;50497;50.720;-2.084;2022-12-22T05:57:47;98821.31;;;8.00;100.00
64192;BME280;50497;50.720;-2.084;2022-12-22T06:00:14;98801.72;;;8.01;100.00
64192;BME280;50497;50.720;-2.084;2022-12-22T06:02:40;98814.19;;;8.13;100.00
64192;BME280;50497;50.720;-2.084;2022-12-22T06:05:06;98807.06;;;8.01;100.00
64192;BME280;50497;50.720;-2.084;2022-12-22T06:07:32;98807.59;;;8.19;100.00
64192;BME280;50497;50.720;-2.084;2022-12-22T06:09:57;98799.22;;;8.63;100.00
64192;BME280;50497;50.720;-2.084;2022-12-22T06:12:23;98788.44;;;8.65;100.00
64192;BME280;50497;50.720;-2.084;2022-12-22T06:14:49;98781.19;;;8.67;100.00
64192;BME280;50497;50.720;-2.084;2022-12-22T06:17:14;98783.38;;;8.86;100.00
64192;BME280;50497;50.720;-2.084;2022-12-22T06:19:39;98768.00;;;8.90;100.00
64192;BME280;50497;50.720;-2.084;2022-12-22T06:22:05;98779.75;;;9.00;100.00
64192;BME280;50497;50.720;-2.084;2022-12-22T06:24:31;98785.69;;;9.03;100.00
64192;BME280;50497;50.720;-2.084;2022-12-22T06:26:56;98750.72;;;8.95;100.00
64192;BME280;50497;50.720;-2.084;2022-12-22T06:29:22;98742.03;;;8.80;100.00
64192;BME280;50497;50.720;-2.084;2022-12-22T06:31:47;98764.47;;;9.02;100.00
64192;BME280;50497;50.720;-2.084;2022-12-22T06:34:13;98512.75;;;9.03;100.00
64192;BME280;50497;50.720;-2.084;2022-12-22T06:36:43;98376.84;;;9.24;100.00
64192;BME280;50497;50.720;-2.084;2022-12-22T06:39:08;98308.50;;;9.12;100.00
64192;BME280;50497;50.720;-2.084;2022-12-22T06:41:34;98316.09;;;9.16;100.00
64192;BME280;50497;50.720;-2.084;2022-12-22T06:44:18;98312.22;;;9.09;100.00
64192;BME280;50497;50.720;-2.084;2022-12-22T06:46:43;98318.75;;;9.28;100.00
64192;BME280;50497;50.720;-2.084;2022-12-22T06:49:08;98313.41;;;9.28;100.00
64192;BME280;50497;50.720;-2.084;2022-12-22T06:51:34;98261.13;;;9.36;100.00
64192;BME280;50497;50.720;-2.084;2022-12-22T06:53:59;98269.09;;;9.48;100.00
64192;BME280;50497;50.720;-2.084;2022-12-22T06:56:25;98265.28;;;9.61;100.00
64192;BME280;50497;50.720;-2.084;2022-12-22T06:58:50;98261.88;;;9.59;100.00
64192;BME280;50497;50.720;-2.084;2022-12-22T07:01:16;98254.66;;;9.50;100.00
64192;BME280;50497;50.720;-2.084;2022-12-22T07:03:41;98270.38;;;9.65;100.00
64192;BME280;50497;50.720;-2.084;2022-12-22T07:06:06;98251.81;;;9.63;100.00
64192;BME280;50497;50.720;-2.084;2022-12-22T07:08:32;98274.81;;;9.75;100.00
64192;BME280;50497;50.720;-2.084;2022-12-22T07:10:57;98271.44;;;9.73;100.00
64192;BME280;50497;50.720;-2.084;2022-12-22T07:13:28;98287.94;;;9.67;100.00
64192;BME280;50497;50.720;-2.084;2022-12-22T07:15:58;98293.38;;;9.77;100.00
64192;BME280;50497;50.720;-2.084;2022-12-22T07:18:31;98291.66;;;9.76;100.00
64192;BME280;50497;50.720;-2.084;2022-12-22T07:20:58;98306.59;;;9.78;100.00
64192;BME280;50497;50.720;-2.084;2022-12-22T07:23:27;98294.25;;;9.66;100.00
64192;BME280;50497;50.720;-2.084;2022-12-22T07:25:56;98312.66;;;9.80;100.00
64192;BME280;50497;50.720;-2.084;2022-12-22T07:28:23;98296.88;;;9.77;100.00
64192;BME280;50497;50.720;-2.084;2022-12-22T07:30:53;98299.78;;;9.86;100.00
64192;BME280;50497;50.720;-2.084;2022-12-22T07:33:18;98295.41;;;9.85;100.00
64192;BME280;50497;50.720;-2.084;2022-12-22T07:35:44;98282.78;;;9.87;100.00
64192;BME280;50497;50.720;-2.084;2022-12-22T07:38:10;98281.06;;;9.86;100.00
64192;BME280;50497;50.720;-2.084;2022-12-22T07:40:38;98282.78;;;9.87;100.00
64192;BME280;50497;50.720;-2.084;2022-12-22T07:43:04;98281.59;;;9.79;100.00
64192;BME280;50497;50.720;-2.084;2022-12-22T07:45:29;98273.59;;;9.79;100.00
64192;BME280;50497;50.720;-2.084;2022-12-22T07:47:58;98292.63;;;9.86;100.00
64192;BME280;50497;50.720;-2.084;2022-12-22T07:50:25;98270.72;;;9.92;100.00
64192;BME280;50497;50.720;-2.084;2022-12-22T07:52:55;98282.41;;;9.91;100.00
64192;BME280;50497;50.720;-2.084;2022-12-22T07:55:23;98282.31;;;9.82;100.00
64192;BME280;50497;50.720;-2.084;2022-12-22T07:57:50;98286.75;;;9.92;100.00
64192;BME280;50497;50.720;-2.084;2022-12-22T08:00:16;98291.00;;;9.95;100.00
64192;BME280;50497;50.720;-2.084;2022-12-22T08:02:42;98310.16;;;10.00;100.00
64192;BME280;50497;50.720;-2.084;2022-12-22T08:05:09;98309.91;;;10.03;100.00
64192;BME280;50497;50.720;-2.084;2022-12-22T08:07:34;98309.19;;;10.01;100.00
64192;BME280;50497;50.720;-2.084;2022-12-22T08:10:00;98299.97;;;9.94;100.00
64192;BME280;50497;50.720;-2.084;2022-12-22T08:12:26;98318.75;;;10.04;100.00
64192;BME280;50497;50.720;-2.084;2022-12-22T08:14:52;98320.59;;;10.03;100.00
64192;BME280;50497;50.720;-2.084;2022-12-22T08:17:17;98341.41;;;10.09;100.00
64192;BME280;50497;50.720;-2.084;2022-12-22T08:19:42;98336.56;;;10.14;100.00
64192;BME280;50497;50.720;-2.084;2022-12-22T08:22:12;98328.75;;;10.23;100.00
64192;BME280;50497;50.720;-2.084;2022-12-22T08:24:38;98319.78;;;10.12;100.00
64192;BME280;50497;50.720;-2.084;2022-12-22T08:27:07;98339.81;;;10.18;100.00
64192;BME280;50497;50.720;-2.084;2022-12-22T08:29:42;98320.53;;;10.14;100.00
64192;BME280;50497;50.720;-2.084;2022-12-22T08:32:10;98317.31;;;10.21;100.00
64192;BME280;50497;50.720;-2.084;2022-12-22T08:34:37;98325.47;;;10.19;100.00
64192;BME280;50497;50.720;-2.084;2022-12-22T08:37:04;98330.94;;;10.17;100.00
64192;BME280;50497;50.720;-2.084;2022-12-22T08:39:34;98328.88;;;10.21;100.00
64192;BME280;50497;50.720;-2.084;2022-12-22T08:42:06;98321.69;;;10.22;100.00
64192;BME280;50497;50.720;-2.084;2022-12-22T08:44:33;98329.22;;;10.28;100.00
64192;BME280;50497;50.720;-2.084;2022-12-22T08:47:00;98333.56;;;10.29;100.00
64192;BME280;50497;50.720;-2.084;2022-12-22T08:49:26;98329.22;;;10.28;100.00
64192;BME280;50497;50.720;-2.084;2022-12-22T08:51:52;98309.50;;;10.29;100.00
64192;BME280;50497;50.720;-2.084;2022-12-22T08:54:19;98301.97;;;10.34;100.00
64192;BME280;50497;50.720;-2.084;2022-12-22T08:56:44;98302.72;;;10.36;100.00
64192;BME280;50497;50.720;-2.084;2022-12-22T08:59:11;98296.09;;;10.40;100.00
64192;BME280;50497;50.720;-2.084;2022-12-22T09:01:40;98288.22;;;10.39;100.00
64192;BME280;50497;50.720;-2.084;2022-12-22T09:04:08;98272.50;;;10.45;100.00
64192;BME280;50497;50.720;-2.084;2022-12-22T09:06:34;98260.84;;;10.46;100.00
64192;BME280;50497;50.720;-2.084;2022-12-22T09:09:02;98247.72;;;10.43;100.00
64192;BME280;50497;50.720;-2.084;2022-12-22T09:11:29;98243.53;;;10.50;100.00
64192;BME280;50497;50.720;-2.084;2022-12-22T09:13:56;98219.34;;;10.52;100.00
64192;BME280;50497;50.720;-2.084;2022-12-22T09:16:24;98219.34;;;10.52;100.00
64192;BME280;50497;50.720;-2.084;2022-12-22T09:18:49;98199.66;;;10.53;100.00
64192;BME280;50497;50.720;-2.084;2022-12-22T09:21:16;98180.63;;;10.46;100.00
64192;BME280;50497;50.720;-2.084;2022-12-22T09:23:41;98168.00;;;10.58;100.00
64192;BME280;50497;50.720;-2.084;2022-12-22T09:26:08;98138.72;;;10.47;100.00
64192;BME280;50497;50.720;-2.084;2022-12-22T09:28:34;98130.28;;;10.51;100.00
64192;BME280;50497;50.720;-2.084;2022-12-22T09:31:00;98132.69;;;10.54;100.00
64192;BME280;50497;50.720;-2.084;2022-12-22T09:33:26;98119.19;;;10.56;100.00
64192;BME280;50497;50.720;-2.084;2022-12-22T09:35:51;98111.03;;;10.58;100.00
64192;BME280;50497;50.720;-2.084;2022-12-22T09:38:17;98100.63;;;10.64;100.00
64192;BME280;50497;50.720;-2.084;2022-12-22T09:40:43;98100.03;;;10.61;100.00
64192;BME280;50497;50.720;-2.084;2022-12-22T09:43:14;98082.06;;;10.63;100.00
64192;BME280;50497;50.720;-2.084;2022-12-22T09:45:41;98066.97;;;10.62;100.00
64192;BME280;50497;50.720;-2.084;2022-12-22T09:48:10;98054.31;;;10.64;100.00
64192;BME280;50497;50.720;-2.084;2022-12-22T09:50:39;98031.94;;;10.65;100.00
64192;BME280;50497;50.720;-2.084;2022-12-22T09:53:07;98034.06;;;10.71;100.00
64192;BME280;50497;50.720;-2.084;2022-12-22T09:55:43;98016.88;;;10.73;100.00
64192;BME280;50497;50.720;-2.084;2022-12-22T09:58:31;98007.75;;;10.76;100.00
64192;BME280;50497;50.720;-2.084;2022-12-22T10:01:10;98009.56;;;10.76;100.00
64192;BME280;50497;50.720;-2.084;2022-12-22T10:06:35;97981.69;;;10.78;100.00
64192;BME280;50497;50.720;-2.084;2022-12-22T10:09:19;97976.91;;;10.82;100.00
64192;BME280;50497;50.720;-2.084;2022-12-22T10:11:54;97986.06;;;10.79;100.00
64192;BME280;50497;50.720;-2.084;2022-12-22T10:14:23;97978.59;;;10.83;100.00
64192;BME280;50497;50.720;-2.084;2022-12-22T10:17:23;97973.13;;;10.84;100.00
64192;BME280;50497;50.720;-2.084;2022-12-22T10:19:51;97965.09;;;10.84;100.00
64192;BME280;50497;50.720;-2.084;2022-12-22T10:22:35;97963.53;;;10.82;100.00
64192;BME280;50497;50.720;-2.084;2022-12-22T10:25:21;97933.84;;;10.75;100.00
64192;BME280;50497;50.720;-2.084;2022-12-22T10:27:47;97943.41;;;10.87;100.00
64192;BME280;50497;50.720;-2.084;2022-12-22T10:30:24;97935.06;;;10.90;100.00
64192;BME280;50497;50.720;-2.084;2022-12-22T10:33:13;97931.84;;;10.87;100.00
64192;BME280;50497;50.720;-2.084;2022-12-22T10:35:43;97924.09;;;10.94;100.00
64192;BME280;50497;50.720;-2.084;2022-12-22T10:38:19;97924.97;;;10.94;100.00
64192;BME280;50497;50.720;-2.084;2022-12-22T10:40:48;97916.22;;;10.92;100.00
64192;BME280;50497;50.720;-2.084;2022-12-22T10:43:19;97897.06;;;10.87;100.00
64192;BME280;50497;50.720;-2.084;2022-12-22T10:45:49;97892.25;;;11.00;100.00
64192;BME280;50497;50.720;-2.084;2022-12-22T10:48:24;97878.47;;;10.95;100.00
64192;BME280;50497;50.720;-2.084;2022-12-22T10:50:50;97893.25;;;10.99;100.00
64192;BME280;50497;50.720;-2.084;2022-12-22T10:53:15;97889.97;;;11.05;100.00
64192;BME280;50497;50.720;-2.084;2022-12-22T10:55:41;97886.31;;;11.06;100.00
64192;BME280;50497;50.720;-2.084;2022-12-22T11:00:35;97875.38;;;11.00;100.00
64192;BME280;50497;50.720;-2.084;2022-12-22T11:03:02;97882.69;;;11.07;100.00
64192;BME280;50497;50.720;-2.084;2022-12-22T11:05:30;97893.38;;;11.07;100.00
64192;BME280;50497;50.720;-2.084;2022-12-22T11:07:56;97892.50;;;11.07;100.00
64192;BME280;50497;50.720;-2.084;2022-12-22T11:13:32;97874.91;;;11.14;100.00
64192;BME280;50497;50.720;-2.084;2022-12-22T11:30:36;97833.72;;;11.25;100.00
64192;BME280;50497;50.720;-2.084;2022-12-22T11:36:07;97825.16;;;11.21;100.00
64192;BME280;50497;50.720;-2.084;2022-12-22T11:38:54;97828.81;;;11.20;100.00
64192;BME280;50497;50.720;-2.084;2022-12-22T11:41:25;97820.09;;;11.18;100.00
64192;BME280;50497;50.720;-2.084;2022-12-22T11:44:19;97823.31;;;11.22;100.00
64192;BME280;50497;50.720;-2.084;2022-12-22T11:47:05;97804.41;;;11.23;100.00
64192;BME280;50497;50.720;-2.084;2022-12-22T11:49:50;97812.84;;;11.28;100.00
64192;BME280;50497;50.720;-2.084;2022-12-22T11:55:10;97792.16;;;11.31;100.00
64192;BME280;50497;50.720;-2.084;2022-12-22T12:00:23;97807.59;;;11.37;100.00
64192;BME280;50497;50.720;-2.084;2022-12-22T12:08:06;97815.63;;;11.37;100.00
64192;BME280;50497;50.720;-2.084;2022-12-22T12:10:43;97825.78;;;11.33;100.00
64192;BME280;50497;50.720;-2.084;2022-12-22T12:13:38;97849.69;;;11.44;100.00
64192;BME280;50497;50.720;-2.084;2022-12-22T12:21:46;97851.38;;;11.45;100.00
64192;BME280;50497;50.720;-2.084;2022-12-22T12:24:39;97864.59;;;11.47;100.00
64192;BME280;50497;50.720;-2.084;2022-12-22T12:27:21;97882.34;;;11.48;100.00
64192;BME280;50497;50.720;-2.084;2022-12-22T12:32:37;97883.94;;;11.41;100.00
64192;BME280;50497;50.720;-2.084;2022-12-22T12:38:36;97957.88;;;11.42;100.00
64192;BME280;50497;50.720;-2.084;2022-12-22T12:41:12;97973.56;;;11.37;100.00
64192;BME280;50497;50.720;-2.084;2022-12-22T12:43:41;97983.28;;;11.38;100.00
64192;BME280;50497;50.720;-2.084;2022-12-22T12:49:04;97984.69;;;11.32;100.00
64192;BME280;50497;50.720;-2.084;2022-12-22T12:51:48;97974.44;;;11.27;100.00
64192;BME280;50497;50.720;-2.084;2022-12-22T12:56:54;97988.81;;;11.17;100.00
64192;BME280;50497;50.720;-2.084;2022-12-22T13:02:33;98010.75;;;11.30;100.00
64192;BME280;50497;50.720;-2.084;2022-12-22T13:10:31;98024.69;;;11.34;100.00
64192;BME280;50497;50.720;-2.084;2022-12-22T13:12:56;98027.09;;;11.27;100.00
64192;BME280;50497;50.720;-2.084;2022-12-22T13:17:56;98001.50;;;11.15;100.00
64192;BME280;50497;50.720;-2.084;2022-12-22T13:20:55;98009.38;;;11.16;100.00
64192;BME280;50497;50.720;-2.084;2022-12-22T13:23:22;98000.69;;;11.04;100.00
64192;BME280;50497;50.720;-2.084;2022-12-22T13:25:51;98006.47;;;11.00;100.00
64192;BME280;50497;50.720;-2.084;2022-12-22T13:28:19;98014.91;;;11.05;100.00
64192;BME280;50497;50.720;-2.084;2022-12-22T13:30:51;98011.66;;;11.11;100.00
64192;BME280;50497;50.720;-2.084;2022-12-22T13:33:20;97992.25;;;10.99;100.00
64192;BME280;50497;50.720;-2.084;2022-12-22T13:35:49;98003.78;;;11.09;100.00
64192;BME280;50497;50.720;-2.084;2022-12-22T13:38:32;97998.97;;;11.03;100.00
64192;BME280;50497;50.720;-2.084;2022-12-22T13:41:01;98002.34;;;11.05;100.00
64192;BME280;50497;50.720;-2.084;2022-12-22T13:43:28;97987.47;;;10.93;100.00
64192;BME280;50497;50.720;-2.084;2022-12-22T13:45:56;98000.41;;;10.98;100.00
64192;BME280;50497;50.720;-2.084;2022-12-22T13:48:27;97997.03;;;10.96;100.00
64192;BME280;50497;50.720;-2.084;2022-12-22T13:50:58;97985.88;;;11.00;100.00
64192;BME280;50497;50.720;-2.084;2022-12-22T13:53:39;97971.69;;;11.00;100.00
64192;BME280;50497;50.720;-2.084;2022-12-22T13:56:07;97971.97;;;10.97;100.00
64192;BME280;50497;50.720;-2.084;2022-12-22T13:58:39;97980.13;;;11.05;100.00
64192;BME280;50497;50.720;-2.084;2022-12-22T14:03:36;97966.31;;;11.00;100.00
64192;BME280;50497;50.720;-2.084;2022-12-22T14:06:17;97974.75;;;11.05;100.00
64192;BME280;50497;50.720;-2.084;2022-12-22T14:08:43;97960.97;;;11.00;100.00
64192;BME280;50497;50.720;-2.084;2022-12-22T14:11:08;97969.16;;;10.98;100.00
64192;BME280;50497;50.720;-2.084;2022-12-22T14:13:34;97983.06;;;11.02;100.00
64192;BME280;50497;50.720;-2.084;2022-12-22T14:16:01;97975.91;;;11.02;100.00
64192;BME280;50497;50.720;-2.084;2022-12-22T14:18:30;97979.16;;;10.96;100.00
64192;BME280;50497;50.720;-2.084;2022-12-22T14:20:57;97988.00;;;11.06;100.00
64192;BME280;50497;50.720;-2.084;2022-12-22T14:23:29;97982.25;;;11.01;100.00
64192;BME280;50497;50.720;-2.084;2022-12-22T14:25:57;97985.47;;;11.05;100.00
64192;BME280;50497;50.720;-2.084;2022-12-22T14:28:32;97981.81;;;11.06;100.00
64192;BME280;50497;50.720;-2.084;2022-12-22T14:31:00;97990.25;;;11.01;100.00
64192;BME280;50497;50.720;-2.084;2022-12-22T14:33:27;97983.75;;;11.04;100.00
64192;BME280;50497;50.720;-2.084;2022-12-22T14:36:35;98000.13;;;11.01;100.00
64192;BME280;50497;50.720;-2.084;2022-12-22T14:39:08;98007.03;;;10.94;100.00